createdAt,value
2023-03-07T00:01:30.562Z,72.13
2023-03-07T00:03:58.202Z,71.96
2023-03-07T00:06:25.675Z,71.41
2023-03-07T00:08:54.697Z,71.19
2023-03-07T00:11:21.543Z,71.05
2023-03-07T00:13:48.831Z,71.14
2023-03-07T00:16:18.322Z,71.78
2023-03-07T00:18:45.329Z,71.74
2023-03-07T00:21:14.428Z,71.36
2023-03-07T00:23:43.100Z,71.56
2023-03-07T00:26:21.111Z,70.39
2023-03-07T00:28:50.389Z,71.03
2023-03-07T00:31:18.385Z,71.00
2023-03-07T00:33:45.058Z,70.82
2023-03-07T00:36:14.376Z,70.35
2023-03-07T00:38:42.189Z,70.60
2023-03-07T00:41:11.641Z,70.26
2023-03-07T00:43:38.727Z,70.87
2023-03-07T00:46:05.920Z,70.34
2023-03-07T00:48:34.356Z,70.64
2023-03-07T00:51:01.799Z,70.91
2023-03-07T00:53:28.381Z,70.36
2023-03-07T00:56:04.349Z,70.31
2023-03-07T00:58:33.157Z,71.05
2023-03-07T01:01:00.469Z,70.62
2023-03-07T01:03:28.176Z,71.08
2023-03-07T01:05:55.717Z,71.13
2023-03-07T01:08:23.276Z,71.45
2023-03-07T01:10:50.587Z,71.19
2023-03-07T01:13:19.231Z,71.35
2023-03-07T01:15:45.957Z,71.52
2023-03-07T01:18:12.637Z,70.64
2023-03-07T01:20:40.556Z,71.68
2023-03-07T01:23:07.248Z,71.15
2023-03-07T01:25:41.962Z,70.63
2023-03-07T01:28:13.647Z,70.98
2023-03-07T01:30:40.904Z,70.84
2023-03-07T01:33:09.084Z,70.98
2023-03-07T01:35:39.756Z,70.74
2023-03-07T01:38:06.459Z,70.76
2023-03-07T01:40:38.377Z,70.64
2023-03-07T01:43:31.929Z,69.89
2023-03-07T01:46:18.876Z,70.51
2023-03-07T01:48:54.430Z,69.71
2023-03-07T01:51:21.354Z,70.34
2023-03-07T01:53:52.004Z,70.74
2023-03-07T01:56:20.597Z,70.57
2023-03-07T01:58:47.181Z,70.28
2023-03-07T02:01:17.077Z,70.37
2023-03-07T02:03:50.391Z,70.19
2023-03-07T02:06:18.481Z,70.87
2023-03-07T02:08:47.690Z,70.21
2023-03-07T02:11:14.503Z,70.82
2023-03-07T02:13:41.374Z,71.15
2023-03-07T02:16:08.365Z,70.79
2023-03-07T02:18:42.236Z,70.62
2023-03-07T02:21:34.750Z,70.59
2023-03-07T02:24:08.088Z,70.80
2023-03-07T02:26:43.648Z,71.20
2023-03-07T02:29:11.813Z,70.58
2023-03-07T02:31:39.151Z,70.73
2023-03-07T02:34:38.127Z,71.41
2023-03-07T02:37:18.826Z,70.63
2023-03-07T02:39:48.339Z,71.66
2023-03-07T02:42:19.938Z,71.56
2023-03-07T02:45:03.462Z,71.15
2023-03-07T02:47:33.325Z,71.25
2023-03-07T02:50:00.327Z,71.44
2023-03-07T02:52:30.346Z,71.95
2023-03-07T02:54:58.417Z,72.41
2023-03-07T02:57:28.618Z,71.65
2023-03-07T02:59:55.152Z,71.95
2023-03-07T03:02:21.617Z,72.57
2023-03-07T03:04:48.143Z,72.42
2023-03-07T03:07:14.653Z,72.58
2023-03-07T03:09:41.160Z,72.50
2023-03-07T03:12:07.822Z,72.37
2023-03-07T03:14:35.447Z,73.28
2023-03-07T03:17:01.920Z,73.10
2023-03-07T03:19:29.700Z,72.67
2023-03-07T03:21:56.961Z,72.95
2023-03-07T03:24:24.160Z,72.95
2023-03-07T03:26:50.762Z,73.28
2023-03-07T03:29:19.837Z,74.19
2023-03-07T03:31:46.344Z,73.47
2023-03-07T03:34:13.092Z,74.47
2023-03-07T03:36:39.671Z,73.68
2023-03-07T03:39:10.922Z,73.82
2023-03-07T03:41:42.569Z,74.18
2023-03-07T03:44:10.018Z,75.14
2023-03-07T03:46:36.775Z,74.77
2023-03-07T03:49:03.722Z,75.49
2023-03-07T03:51:30.936Z,75.28
2023-03-07T03:53:58.587Z,76.41
2023-03-07T03:56:27.286Z,76.05
2023-03-07T03:58:55.405Z,76.22
2023-03-07T04:01:24.482Z,76.89
2023-03-07T04:03:53.628Z,77.56
2023-03-07T04:06:26.571Z,77.82
2023-03-07T04:08:53.950Z,78.60
2023-03-07T04:11:21.867Z,79.07
2023-03-07T04:13:48.783Z,78.86
2023-03-07T04:16:16.802Z,79.80
2023-03-07T04:18:43.395Z,80.91
2023-03-07T04:21:12.925Z,80.94
2023-03-07T04:23:40.379Z,81.49
2023-03-07T04:26:08.668Z,81.35
2023-03-07T04:28:45.397Z,81.25
2023-03-07T04:31:19.321Z,81.57
2023-03-07T04:33:46.687Z,81.99
2023-03-07T04:36:13.842Z,81.26
2023-03-07T04:38:41.019Z,82.08
2023-03-07T04:41:10.719Z,82.20
2023-03-07T04:43:37.312Z,82.09
2023-03-07T04:46:04.003Z,81.73
2023-03-07T04:48:30.553Z,80.91
2023-03-07T04:50:57.270Z,80.81
2023-03-07T04:53:23.969Z,80.45
2023-03-07T04:55:50.677Z,80.30
2023-03-07T04:58:17.208Z,80.42
2023-03-07T05:00:45.461Z,79.77
2023-03-07T05:03:13.411Z,79.61
2023-03-07T05:05:40.054Z,78.31
2023-03-07T05:08:06.624Z,78.31
2023-03-07T05:10:34.661Z,78.18
2023-03-07T05:13:03.740Z,77.37
2023-03-07T05:15:30.942Z,77.13
2023-03-07T05:17:57.371Z,77.36
2023-03-07T05:20:25.653Z,76.38
2023-03-07T05:22:52.125Z,76.70
2023-03-07T05:25:18.735Z,75.98
2023-03-07T05:27:45.333Z,76.00
2023-03-07T05:30:12.678Z,75.89
2023-03-07T05:32:39.181Z,75.47
2023-03-07T05:35:06.816Z,75.00
2023-03-07T05:37:33.444Z,76.11
2023-03-07T05:40:00.125Z,75.59
2023-03-07T05:42:26.675Z,74.87
2023-03-07T05:44:53.195Z,74.24
2023-03-07T05:47:19.675Z,74.58
2023-03-07T05:49:46.138Z,74.23
2023-03-07T05:52:13.286Z,73.97
2023-03-07T05:54:39.793Z,73.99
2023-03-07T05:57:06.211Z,74.10
2023-03-07T05:59:32.751Z,73.70
2023-03-07T06:01:59.387Z,73.08
2023-03-07T06:04:25.962Z,72.93
2023-03-07T06:06:52.403Z,73.29
2023-03-07T06:09:19.013Z,72.93
2023-03-07T06:11:45.473Z,72.20
2023-03-07T06:14:11.861Z,72.46
2023-03-07T06:16:38.257Z,72.63
2023-03-07T06:19:04.869Z,72.47
2023-03-07T06:21:31.551Z,71.82
2023-03-07T06:23:58.277Z,71.91
2023-03-07T06:26:24.740Z,71.85
2023-03-07T06:28:53.310Z,71.23
2023-03-07T06:31:21.137Z,71.83
2023-03-07T06:33:48.220Z,71.71
2023-03-07T06:36:18.890Z,71.28
2023-03-07T06:38:48.788Z,71.62
2023-03-07T06:41:15.856Z,70.83
2023-03-07T06:43:42.687Z,70.79
2023-03-07T06:46:09.459Z,70.38
2023-03-07T06:48:39.537Z,70.69
2023-03-07T06:51:10.358Z,70.04
2023-03-07T06:53:39.258Z,70.10
2023-03-07T06:56:06.088Z,70.03
2023-03-07T06:58:33.854Z,69.14
2023-03-07T07:01:00.592Z,69.61
2023-03-07T07:03:27.253Z,69.03
2023-03-07T07:05:53.695Z,69.14
2023-03-07T07:08:20.135Z,68.36
2023-03-07T07:10:46.764Z,68.78
2023-03-07T07:13:13.198Z,68.80
2023-03-07T07:15:40.083Z,68.71
2023-03-07T07:18:06.685Z,68.50
2023-03-07T07:20:34.511Z,68.24
2023-03-07T07:23:02.063Z,68.49
2023-03-07T07:25:28.550Z,68.25
2023-03-07T07:27:55.012Z,67.71
2023-03-07T07:30:21.478Z,67.64
2023-03-07T07:32:48.219Z,67.23
2023-03-07T07:35:14.894Z,67.19
2023-03-07T07:37:41.596Z,67.08
2023-03-07T07:40:10.619Z,66.89
2023-03-07T07:42:37.763Z,66.90
2023-03-07T07:45:20.957Z,66.97
2023-03-07T07:47:49.828Z,66.85
2023-03-07T07:50:20.724Z,66.67
2023-03-07T07:52:48.134Z,66.60
2023-03-07T07:55:15.291Z,66.63
2023-03-07T07:57:43.645Z,66.47
2023-03-07T08:00:12.221Z,66.24
2023-03-07T08:02:39.545Z,65.84
2023-03-07T08:05:10.656Z,66.22
2023-03-07T08:07:37.091Z,66.29
2023-03-07T08:10:04.041Z,65.98
2023-03-07T08:12:30.439Z,65.17
2023-03-07T08:14:56.859Z,65.05
2023-03-07T08:17:23.257Z,64.55
2023-03-07T08:19:49.663Z,63.95
2023-03-07T08:22:16.848Z,64.07
2023-03-07T08:24:43.292Z,64.15
2023-03-07T08:27:09.875Z,63.57
2023-03-07T08:29:36.361Z,63.33
2023-03-07T08:32:02.881Z,63.46
2023-03-07T08:34:29.400Z,62.92
2023-03-07T08:36:55.800Z,63.31
2023-03-07T08:39:22.226Z,63.39
2023-03-07T08:41:48.611Z,62.39
2023-03-07T08:44:15.016Z,61.18
2023-03-07T08:46:41.477Z,61.72
2023-03-07T08:49:08.038Z,61.52
2023-03-07T08:51:34.950Z,61.38
2023-03-07T08:54:01.413Z,61.36
2023-03-07T08:56:27.852Z,61.22
2023-03-07T08:58:54.743Z,60.89
2023-03-07T09:01:21.194Z,60.88
2023-03-07T09:03:47.614Z,60.73
2023-03-07T09:06:19.142Z,60.43
2023-03-07T09:08:46.143Z,60.49
2023-03-07T09:11:13.146Z,60.37
2023-03-07T09:13:51.072Z,60.13
2023-03-07T09:16:19.047Z,59.77
2023-03-07T09:18:45.463Z,59.75
2023-03-07T09:21:11.907Z,59.09
2023-03-07T09:23:38.299Z,59.30
2023-03-07T09:26:05.816Z,58.25
2023-03-07T09:28:32.369Z,57.35
2023-03-07T09:30:58.805Z,57.59
2023-03-07T09:33:25.376Z,56.94
2023-03-07T09:35:51.817Z,56.14
2023-03-07T09:38:18.254Z,56.97
2023-03-07T09:40:47.758Z,56.75
2023-03-07T09:43:25.722Z,56.34
2023-03-07T09:46:46.151Z,56.87
2023-03-07T09:49:17.209Z,57.51
2023-03-07T09:51:45.505Z,56.15
2023-03-07T09:54:13.981Z,56.01
2023-03-07T09:56:51.787Z,55.86
2023-03-07T09:59:36.694Z,55.92
2023-03-07T10:02:29.518Z,56.57
2023-03-07T10:05:04.744Z,55.59
2023-03-07T10:07:32.521Z,55.44
2023-03-07T10:10:06.682Z,55.00
2023-03-07T10:12:45.211Z,55.25
2023-03-07T10:15:28.078Z,55.09
2023-03-07T10:18:17.841Z,53.67
2023-03-07T10:21:06.090Z,53.61
2023-03-07T10:24:04.454Z,54.25
2023-03-07T10:26:41.618Z,54.23
2023-03-07T10:29:16.778Z,53.82
2023-03-07T10:31:48.802Z,52.02
2023-03-07T10:34:28.443Z,52.79
2023-03-07T10:37:08.674Z,50.51
2023-03-07T10:39:49.485Z,50.93
2023-03-07T10:42:18.982Z,49.72
2023-03-07T10:44:46.096Z,50.63
2023-03-07T10:47:24.671Z,50.77
2023-03-07T10:49:54.948Z,50.57
2023-03-07T10:52:33.875Z,51.38
2023-03-07T10:55:32.643Z,51.02
2023-03-07T10:58:17.413Z,51.84
2023-03-07T11:00:44.665Z,51.99
2023-03-07T11:03:25.172Z,52.51
2023-03-07T11:05:51.632Z,50.92
2023-03-07T11:08:36.280Z,52.18
2023-03-07T11:11:04.909Z,51.86
2023-03-07T11:13:31.826Z,51.94
2023-03-07T11:16:19.453Z,51.67
2023-03-07T11:18:46.034Z,52.24
2023-03-07T11:21:35.220Z,52.46
2023-03-07T11:24:04.806Z,52.70
2023-03-07T11:26:40.125Z,52.39
2023-03-07T11:29:13.029Z,52.15
2023-03-07T11:31:54.497Z,52.00
2023-03-07T11:34:39.821Z,51.40
2023-03-07T11:37:29.575Z,52.36
2023-03-07T11:40:18.692Z,52.00
2023-03-07T11:43:05.328Z,52.35
2023-03-07T11:45:50.032Z,51.95
2023-03-07T11:48:28.860Z,51.59
2023-03-07T11:50:57.494Z,52.04
2023-03-07T11:53:43.481Z,51.95
2023-03-07T11:56:40.782Z,52.05
2023-03-07T11:59:28.356Z,50.79
2023-03-07T12:02:02.201Z,50.49
2023-03-07T12:04:59.665Z,51.47
2023-03-07T12:07:51.030Z,51.25
2023-03-07T12:10:54.114Z,50.46
2023-03-07T12:13:37.239Z,52.16
2023-03-07T12:16:22.903Z,52.68
2023-03-07T12:19:07.552Z,51.95
2023-03-07T12:22:02.232Z,51.03
2023-03-07T12:24:37.632Z,50.41
2023-03-07T12:27:12.883Z,48.80
2023-03-07T12:29:49.408Z,48.33
2023-03-07T12:32:21.385Z,47.53
2023-03-07T12:34:55.611Z,45.98
2023-03-07T12:37:24.756Z,46.63
2023-03-07T12:39:59.949Z,45.08
2023-03-07T12:42:42.836Z,44.63
2023-03-07T12:45:28.506Z,43.95
2023-03-07T12:47:57.853Z,44.28
2023-03-07T12:50:58.479Z,44.02
2023-03-07T12:53:35.278Z,44.21
2023-03-07T12:56:17.120Z,44.27
2023-03-07T12:59:10.363Z,44.22
2023-03-07T13:01:41.468Z,43.59
2023-03-07T13:04:18.408Z,43.39
2023-03-07T13:06:46.335Z,42.95
2023-03-07T13:09:22.291Z,43.17
2023-03-07T13:12:29.604Z,42.33
2023-03-07T13:14:57.520Z,42.50
2023-03-07T13:17:26.954Z,43.15
2023-03-07T13:19:55.517Z,42.97
2023-03-07T13:22:21.880Z,41.49
2023-03-07T13:24:51.061Z,42.04
2023-03-07T13:27:20.904Z,41.56
2023-03-07T13:30:06.008Z,41.33
2023-03-07T13:32:50.816Z,41.77
2023-03-07T13:35:32.693Z,42.06
2023-03-07T13:38:22.389Z,42.17
2023-03-07T13:40:58.461Z,42.38
2023-03-07T13:43:27.653Z,41.89
2023-03-07T13:46:03.019Z,42.00
2023-03-07T13:48:49.367Z,42.63
2023-03-07T13:51:15.957Z,43.03
2023-03-07T13:53:50.518Z,43.06
2023-03-07T13:56:17.015Z,43.35
2023-03-07T13:58:47.326Z,42.45
2023-03-07T14:01:20.406Z,42.95
2023-03-07T14:03:57.134Z,43.91
2023-03-07T14:06:33.673Z,43.58
2023-03-07T14:09:02.612Z,43.66
2023-03-07T14:11:49.349Z,44.43
2023-03-07T14:14:25.308Z,44.86
2023-03-07T14:17:01.518Z,44.94
2023-03-07T14:19:49.413Z,44.54
2023-03-07T14:22:44.270Z,42.93
2023-03-07T14:25:28.041Z,43.37
2023-03-07T14:28:00.372Z,42.43
2023-03-07T14:30:30.269Z,42.25
2023-03-07T14:32:57.930Z,41.88
2023-03-07T14:35:45.292Z,40.93
2023-03-07T14:38:24.461Z,40.49
2023-03-07T14:41:09.598Z,39.51
2023-03-07T14:44:02.659Z,39.52
2023-03-07T14:46:53.285Z,39.11
2023-03-07T14:49:40.485Z,39.17
2023-03-07T14:52:24.680Z,39.31
2023-03-07T14:55:00.004Z,39.29
2023-03-07T14:57:33.672Z,39.62
2023-03-07T15:00:15.422Z,39.16
2023-03-07T15:02:50.050Z,39.63
2023-03-07T15:05:20.153Z,39.02
2023-03-07T15:07:48.154Z,38.84
2023-03-07T15:10:42.095Z,39.00
2023-03-07T15:13:28.420Z,39.99
2023-03-07T15:16:03.657Z,41.17
2023-03-07T15:18:44.686Z,41.43
2023-03-07T15:21:20.605Z,41.98
2023-03-07T15:23:56.308Z,42.94
2023-03-07T15:26:26.251Z,43.55
2023-03-07T15:29:01.319Z,43.37
2023-03-07T15:31:57.571Z,44.40
2023-03-07T15:34:26.322Z,45.19
2023-03-07T15:36:53.372Z,44.93
2023-03-07T15:39:37.155Z,45.50
2023-03-07T15:42:06.123Z,44.76
2023-03-07T15:44:34.196Z,42.99
2023-03-07T15:47:12.969Z,39.29
2023-03-07T15:49:46.015Z,35.00
2023-03-07T15:52:39.585Z,34.58
2023-03-07T15:55:21.414Z,36.13
2023-03-07T15:57:56.384Z,37.80
2023-03-07T16:00:32.123Z,38.94
2023-03-07T16:03:16.856Z,39.01
2023-03-07T16:05:43.416Z,35.83
2023-03-07T16:08:13.746Z,33.92
2023-03-07T16:10:58.705Z,33.77
2023-03-07T16:13:29.395Z,36.48
2023-03-07T16:16:05.813Z,39.04
2023-03-07T16:18:33.326Z,40.92
2023-03-07T16:21:00.085Z,42.19
2023-03-07T16:23:30.780Z,41.69
2023-03-07T16:26:01.245Z,37.44
2023-03-07T16:28:27.990Z,33.58
2023-03-07T16:30:54.446Z,31.67
2023-03-07T16:33:20.991Z,33.07
2023-03-07T16:35:47.682Z,33.02
2023-03-07T16:38:14.120Z,34.42
2023-03-07T16:40:43.380Z,36.34
2023-03-07T16:43:29.336Z,38.21
2023-03-07T16:45:57.191Z,39.08
2023-03-07T16:48:23.853Z,40.00
2023-03-07T16:50:50.457Z,40.26
2023-03-07T16:53:17.434Z,40.16
2023-03-07T16:55:44.064Z,40.83
2023-03-07T16:58:20.666Z,41.89
2023-03-07T17:00:47.165Z,43.21
2023-03-07T17:03:13.625Z,43.94
2023-03-07T17:05:40.046Z,44.43
2023-03-07T17:08:08.211Z,45.89
2023-03-07T17:10:36.741Z,46.67
2023-03-07T17:13:07.170Z,47.04
2023-03-07T17:15:33.701Z,47.40
2023-03-07T17:18:00.617Z,47.92
2023-03-07T17:20:27.880Z,48.38
2023-03-07T17:22:54.750Z,48.54
2023-03-07T17:25:22.641Z,49.24
2023-03-07T17:27:59.635Z,49.81
2023-03-07T17:30:29.103Z,49.81
2023-03-07T17:32:56.625Z,50.04
2023-03-07T17:35:23.705Z,50.75
2023-03-07T17:37:52.904Z,50.71
2023-03-07T17:40:20.544Z,50.89
2023-03-07T17:42:49.560Z,51.43
2023-03-07T17:45:16.072Z,51.94
2023-03-07T17:47:42.634Z,52.03
2023-03-07T17:50:10.350Z,52.43
2023-03-07T17:52:37.251Z,52.47
2023-03-07T17:55:09.287Z,52.49
2023-03-07T17:57:36.398Z,52.94
2023-03-07T18:00:06.792Z,53.13
2023-03-07T18:02:39.648Z,53.49
2023-03-07T18:05:07.400Z,53.48
2023-03-07T18:07:33.954Z,53.52
2023-03-07T18:10:07.928Z,54.19
2023-03-07T18:12:35.685Z,53.97
2023-03-07T18:15:02.146Z,54.32
2023-03-07T18:17:38.445Z,54.81
2023-03-07T18:20:13.817Z,54.82
2023-03-07T18:22:40.800Z,54.92
2023-03-07T18:25:10.665Z,55.21
2023-03-07T18:27:37.269Z,55.29
2023-03-07T18:30:04.396Z,55.09
2023-03-07T18:32:34.221Z,55.05
2023-03-07T18:35:00.854Z,55.33
2023-03-07T18:37:27.961Z,55.46
2023-03-07T18:39:54.372Z,55.91
2023-03-07T18:42:20.797Z,55.78
2023-03-07T18:44:47.243Z,55.88
2023-03-07T18:47:13.834Z,55.83
2023-03-07T18:49:40.391Z,56.41
2023-03-07T18:52:06.798Z,56.27
2023-03-07T18:54:34.279Z,56.77
2023-03-07T18:57:01.553Z,56.85
2023-03-07T18:59:27.932Z,56.44
2023-03-07T19:01:55.015Z,56.92
2023-03-07T19:04:21.439Z,56.95
2023-03-07T19:06:48.550Z,56.91
2023-03-07T19:09:17.598Z,57.02
2023-03-07T19:11:44.503Z,57.48
2023-03-07T19:14:11.116Z,57.67
2023-03-07T19:16:37.604Z,57.34
2023-03-07T19:19:04.151Z,57.63
2023-03-07T19:21:31.183Z,57.54
2023-03-07T19:23:59.805Z,57.87
2023-03-07T19:26:26.296Z,57.90
2023-03-07T19:28:54.451Z,57.99
2023-03-07T19:31:24.841Z,58.11
2023-03-07T19:33:52.097Z,58.53
2023-03-07T19:36:24.997Z,58.25
2023-03-07T19:38:55.380Z,58.68
2023-03-07T19:41:23.947Z,58.62
2023-03-07T19:43:51.054Z,58.63
2023-03-07T19:46:19.300Z,58.48
2023-03-07T19:48:45.734Z,58.47
2023-03-07T19:51:17.674Z,58.60
2023-03-07T19:53:45.560Z,58.83
2023-03-07T19:56:18.452Z,59.16
2023-03-07T19:58:44.886Z,58.96
2023-03-07T20:01:14.254Z,58.86
2023-03-07T20:03:40.865Z,59.34
2023-03-07T20:06:08.824Z,59.24
2023-03-07T20:08:35.614Z,59.25
2023-03-07T20:11:09.898Z,59.61
2023-03-07T20:13:36.641Z,59.60
2023-03-07T20:16:03.301Z,59.36
2023-03-07T20:18:29.718Z,59.36
2023-03-07T20:20:56.193Z,59.29
2023-03-07T20:23:22.751Z,59.67
2023-03-07T20:25:49.141Z,59.79
2023-03-07T20:28:15.516Z,59.22
2023-03-07T20:30:41.992Z,59.59
2023-03-07T20:33:08.407Z,59.44
2023-03-07T20:35:34.871Z,59.77
2023-03-07T20:38:01.261Z,59.89
2023-03-07T20:40:27.650Z,60.04
2023-03-07T20:42:54.029Z,59.65
2023-03-07T20:45:20.990Z,59.55
2023-03-07T20:47:47.369Z,59.63
2023-03-07T20:50:13.752Z,59.96
2023-03-07T20:52:40.153Z,60.17
2023-03-07T20:55:07.008Z,59.50
2023-03-07T20:57:33.466Z,59.64
2023-03-07T21:00:00.257Z,59.80
2023-03-07T21:02:26.809Z,59.75
2023-03-07T21:04:53.233Z,59.54
2023-03-07T21:07:19.646Z,60.06
2023-03-07T21:09:50.785Z,59.23
2023-03-07T21:12:17.941Z,59.68
2023-03-07T21:14:44.318Z,59.32
2023-03-07T21:17:12.573Z,59.44
2023-03-07T21:19:39.134Z,59.12
2023-03-07T21:22:05.623Z,59.13
2023-03-07T21:24:32.109Z,59.09
2023-03-07T21:26:59.101Z,59.22
2023-03-07T21:29:25.594Z,58.48
2023-03-07T21:31:52.290Z,58.87
2023-03-07T21:34:18.756Z,58.48
2023-03-07T21:36:45.852Z,58.19
2023-03-07T21:39:12.336Z,58.43
2023-03-07T21:41:38.928Z,57.99
2023-03-07T21:44:05.976Z,58.49
2023-03-07T21:46:32.407Z,57.74
2023-03-07T21:48:59.365Z,57.85
2023-03-07T21:51:25.875Z,57.44
2023-03-07T21:53:52.254Z,57.39
2023-03-07T21:56:18.747Z,57.35
2023-03-07T21:58:49.632Z,57.17
2023-03-07T22:01:17.783Z,57.25
2023-03-07T22:03:44.437Z,56.59
2023-03-07T22:06:14.112Z,56.94
2023-03-07T22:08:41.248Z,56.70
2023-03-07T22:11:09.436Z,56.44
2023-03-07T22:13:37.289Z,56.41
2023-03-07T22:16:06.979Z,56.88
2023-03-07T22:18:34.299Z,56.60
2023-03-07T22:21:07.339Z,56.34
2023-03-07T22:23:33.921Z,56.58
2023-03-07T22:26:05.258Z,56.43
2023-03-07T22:28:31.819Z,56.98
2023-03-07T22:31:07.566Z,56.98
2023-03-07T22:33:34.240Z,56.69
2023-03-07T22:36:02.837Z,57.01
2023-03-07T22:38:29.400Z,56.83
2023-03-07T22:41:03.312Z,56.35
2023-03-07T22:43:34.507Z,56.62
2023-03-07T22:46:01.338Z,56.83
2023-03-07T22:48:28.705Z,56.96
2023-03-07T22:50:55.256Z,57.09
2023-03-07T22:53:21.710Z,56.96
2023-03-07T22:55:48.175Z,57.15
2023-03-07T22:58:14.670Z,56.95
2023-03-07T23:00:42.951Z,57.33
2023-03-07T23:03:10.139Z,57.08
2023-03-07T23:05:36.698Z,56.46
2023-03-07T23:08:03.869Z,56.50
2023-03-07T23:10:31.162Z,56.75
2023-03-07T23:12:58.029Z,57.11
2023-03-07T23:15:24.810Z,56.76
2023-03-07T23:17:51.652Z,56.77
2023-03-07T23:20:18.937Z,56.68
2023-03-07T23:22:46.118Z,56.98
2023-03-07T23:25:14.856Z,57.27
2023-03-07T23:27:41.309Z,56.69
2023-03-07T23:30:08.582Z,56.54
2023-03-07T23:32:35.096Z,56.69
2023-03-07T23:35:01.859Z,57.01
2023-03-07T23:37:28.254Z,56.84
2023-03-07T23:39:54.691Z,56.49
2023-03-07T23:42:21.360Z,56.53
2023-03-07T23:44:50.591Z,56.70
2023-03-07T23:47:17.112Z,56.83
2023-03-07T23:49:43.625Z,56.91
2023-03-07T23:52:10.047Z,56.88
2023-03-07T23:54:36.541Z,56.67
2023-03-07T23:57:02.993Z,57.14
2023-03-07T23:59:29.397Z,57.13
